createdAt,value
2023-04-20T00:00:11.634Z,4.90
2023-04-20T00:02:33.327Z,4.70
2023-04-20T00:04:54.946Z,4.60
2023-04-20T00:07:16.803Z,4.93
2023-04-20T00:09:38.512Z,4.87
2023-04-20T00:11:59.956Z,4.87
2023-04-20T00:14:21.440Z,5.27
2023-04-20T00:16:43.016Z,4.97
2023-04-20T00:19:04.455Z,5.07
2023-04-20T00:21:26.199Z,5.63
2023-04-20T00:23:47.619Z,5.10
2023-04-20T00:26:09.092Z,5.10
2023-04-20T00:28:31.170Z,5.17
2023-04-20T00:30:52.661Z,6.13
2023-04-20T00:33:14.101Z,5.30
2023-04-20T00:35:35.637Z,5.47
2023-04-20T00:37:57.112Z,5.17
2023-04-20T00:40:18.845Z,5.23
2023-04-20T00:42:41.477Z,5.20
2023-04-20T00:45:03.828Z,5.93
2023-04-20T00:47:25.727Z,5.40
2023-04-20T00:49:47.811Z,5.63
2023-04-20T00:52:09.425Z,5.40
2023-04-20T00:54:31.963Z,5.73
2023-04-20T00:56:54.520Z,5.37
2023-04-20T00:59:16.705Z,6.00
2023-04-20T01:01:38.469Z,5.30
2023-04-20T01:04:00.130Z,5.30
2023-04-20T01:06:21.804Z,5.67
2023-04-20T01:08:48.482Z,5.17
2023-04-20T01:11:09.997Z,5.90
2023-04-20T01:13:31.491Z,5.20
2023-04-20T01:15:53.027Z,5.90
2023-04-20T01:18:15.370Z,7.00
2023-04-20T01:20:37.516Z,6.80
2023-04-20T01:22:59.030Z,5.87
2023-04-20T01:25:21.059Z,5.70
2023-04-20T01:27:43.025Z,6.00
2023-04-20T01:30:05.080Z,5.80
2023-04-20T01:32:26.590Z,5.73
2023-04-20T01:34:48.229Z,5.33
2023-04-20T01:37:09.732Z,5.87
2023-04-20T01:39:31.322Z,6.33
2023-04-20T01:41:52.814Z,6.97
2023-04-20T01:44:14.271Z,6.67
2023-04-20T01:46:39.919Z,6.17
2023-04-20T01:49:01.439Z,6.00
2023-04-20T01:51:22.906Z,6.10
2023-04-20T01:53:44.329Z,6.03
2023-04-20T01:56:06.036Z,6.80
2023-04-20T01:58:27.470Z,5.67
2023-04-20T02:00:49.179Z,5.73
2023-04-20T02:03:11.156Z,5.57
2023-04-20T02:05:32.775Z,5.53
2023-04-20T02:07:54.190Z,5.60
2023-04-20T02:10:15.755Z,5.50
2023-04-20T02:12:37.207Z,5.83
2023-04-20T02:14:58.668Z,5.67
2023-04-20T02:17:20.196Z,5.50
2023-04-20T02:19:41.745Z,5.63
2023-04-20T02:22:03.511Z,5.83
2023-04-20T02:24:25.040Z,5.43
2023-04-20T02:26:46.475Z,5.57
2023-04-20T02:29:07.958Z,5.97
2023-04-20T02:31:29.421Z,5.20
2023-04-20T02:33:51.502Z,5.73
2023-04-20T02:36:13.075Z,5.90
2023-04-20T02:38:34.526Z,5.27
2023-04-20T02:40:56.084Z,5.83
2023-04-20T02:43:17.491Z,5.70
2023-04-20T02:45:39.096Z,5.60
2023-04-20T02:48:00.808Z,5.07
2023-04-20T02:50:22.316Z,5.60
2023-04-20T02:52:43.761Z,5.40
2023-04-20T02:55:06.014Z,5.00
2023-04-20T02:57:27.514Z,4.90
2023-04-20T02:59:48.962Z,5.70
2023-04-20T03:02:10.572Z,5.17
2023-04-20T03:04:32.263Z,5.80
2023-04-20T03:06:53.800Z,6.10
2023-04-20T03:09:15.477Z,4.77
2023-04-20T03:11:37.148Z,5.10
2023-04-20T03:13:58.599Z,5.10
2023-04-20T03:16:20.105Z,5.30
2023-04-20T03:18:41.625Z,5.13
2023-04-20T03:21:03.119Z,4.90
2023-04-20T03:23:24.631Z,5.17
2023-04-20T03:25:46.454Z,5.00
2023-04-20T03:28:07.885Z,4.67
2023-04-20T03:30:29.433Z,4.87
2023-04-20T03:32:50.959Z,5.10
2023-04-20T03:35:12.433Z,5.10
2023-04-20T03:37:33.940Z,5.20
2023-04-20T03:39:55.489Z,4.90
2023-04-20T03:42:16.905Z,4.90
2023-04-20T03:44:38.385Z,4.60
2023-04-20T03:46:59.837Z,4.97
2023-04-20T03:49:25.481Z,4.70
2023-04-20T03:51:46.897Z,4.50
2023-04-20T03:54:08.389Z,4.37
2023-04-20T03:56:29.822Z,4.73
2023-04-20T03:58:51.267Z,5.80
2023-04-20T04:01:13.448Z,7.80
2023-04-20T04:03:36.320Z,9.93
2023-04-20T04:05:58.375Z,10.87
2023-04-20T04:08:19.824Z,9.07
2023-04-20T04:10:41.306Z,13.90
2023-04-20T04:13:02.720Z,16.17
2023-04-20T04:15:24.289Z,25.90
2023-04-20T04:17:46.165Z,33.37
2023-04-20T04:20:11.495Z,14.93
2023-04-20T04:22:32.923Z,10.80
2023-04-20T04:24:54.540Z,16.30
2023-04-20T04:27:16.268Z,15.93
2023-04-20T04:29:38.745Z,10.37
2023-04-20T04:32:00.564Z,16.97
2023-04-20T04:34:24.040Z,8.30
2023-04-20T04:36:46.036Z,5.33
2023-04-20T04:39:07.504Z,6.13
2023-04-20T04:41:28.924Z,4.53
2023-04-20T04:43:51.544Z,6.83
2023-04-20T04:46:14.524Z,12.50
2023-04-20T04:48:40.775Z,6.20
2023-04-20T04:51:02.741Z,6.23
2023-04-20T04:53:24.205Z,5.57
2023-04-20T04:55:46.536Z,5.23
2023-04-20T04:58:08.053Z,4.83
2023-04-20T05:00:29.588Z,4.53
2023-04-20T05:02:53.065Z,4.30
2023-04-20T05:05:14.916Z,4.13
2023-04-20T05:07:36.354Z,3.40
2023-04-20T05:09:57.865Z,3.73
2023-04-20T05:12:19.558Z,3.20
2023-04-20T05:14:41.029Z,3.40
2023-04-20T05:17:02.708Z,5.37
2023-04-20T05:19:24.215Z,3.67
2023-04-20T05:21:45.869Z,2.90
2023-04-20T05:24:07.415Z,3.83
2023-04-20T05:26:28.874Z,3.90
2023-04-20T05:28:51.250Z,3.57
2023-04-20T05:31:12.746Z,3.17
2023-04-20T05:33:34.318Z,3.37
2023-04-20T05:35:57.249Z,3.27
2023-04-20T05:38:18.702Z,3.07
2023-04-20T05:40:40.205Z,2.60
2023-04-20T05:43:01.737Z,2.80
2023-04-20T05:45:23.313Z,2.30
2023-04-20T05:47:53.590Z,2.27
2023-04-20T05:50:15.243Z,2.60
2023-04-20T05:52:36.785Z,2.67
2023-04-20T05:54:59.526Z,2.57
2023-04-20T05:57:21.882Z,2.30
2023-04-20T05:59:43.759Z,2.20
2023-04-20T06:02:06.131Z,2.00
2023-04-20T06:04:28.376Z,1.90
2023-04-20T06:06:51.113Z,2.43
2023-04-20T06:09:12.580Z,2.20
2023-04-20T06:11:34.534Z,2.30
2023-04-20T06:13:56.039Z,2.03
2023-04-20T06:16:17.489Z,1.90
2023-04-20T06:18:38.970Z,2.03
2023-04-20T06:21:01.747Z,2.13
2023-04-20T06:23:23.235Z,2.23
2023-04-20T06:25:44.670Z,2.20
2023-04-20T06:28:06.739Z,1.90
2023-04-20T06:30:28.304Z,1.67
2023-04-20T06:32:49.889Z,2.20
2023-04-20T06:35:11.476Z,1.80
2023-04-20T06:37:33.036Z,2.10
2023-04-20T06:39:57.682Z,1.53
2023-04-20T06:42:19.130Z,2.10
2023-04-20T06:44:41.173Z,2.03
2023-04-20T06:47:02.880Z,1.40
2023-04-20T06:49:24.443Z,1.40
2023-04-20T06:51:45.880Z,1.67
2023-04-20T06:54:07.546Z,1.60
2023-04-20T06:56:28.972Z,1.30
2023-04-20T06:58:50.461Z,1.67
2023-04-20T07:01:11.896Z,1.50
2023-04-20T07:03:33.918Z,1.60
2023-04-20T07:05:55.607Z,2.67
2023-04-20T07:08:17.141Z,1.90
2023-04-20T07:10:38.562Z,2.20
2023-04-20T07:13:00.007Z,2.10
2023-04-20T07:15:22.996Z,2.60
2023-04-20T07:17:44.539Z,4.00
2023-04-20T07:20:10.032Z,3.50
2023-04-20T07:22:32.567Z,3.63
2023-04-20T07:24:54.037Z,4.30
2023-04-20T07:27:15.746Z,4.80
2023-04-20T07:29:37.175Z,4.47
2023-04-20T07:31:58.632Z,4.60
2023-04-20T07:34:20.424Z,5.30
2023-04-20T07:36:42.071Z,5.43
2023-04-20T07:39:04.279Z,5.73
2023-04-20T07:41:25.809Z,5.80
2023-04-20T07:43:47.321Z,6.00
2023-04-20T07:46:08.822Z,5.37
2023-04-20T07:48:30.405Z,5.80
2023-04-20T07:50:51.826Z,5.23
2023-04-20T07:53:14.176Z,6.13
2023-04-20T07:55:35.954Z,5.83
2023-04-20T07:57:57.892Z,7.03
2023-04-20T08:00:19.918Z,5.70
2023-04-20T08:02:41.884Z,5.93
2023-04-20T08:05:04.036Z,6.20
2023-04-20T08:07:25.708Z,5.63
2023-04-20T08:09:47.122Z,5.87
2023-04-20T08:12:08.757Z,6.00
2023-04-20T08:14:30.246Z,6.57
2023-04-20T08:16:51.777Z,6.20
2023-04-20T08:21:40.888Z,6.70
2023-04-20T08:24:04.656Z,6.37
2023-04-20T08:26:27.514Z,6.23
2023-04-20T08:28:48.922Z,6.47
2023-04-20T08:31:10.979Z,6.63
2023-04-20T08:33:32.542Z,6.70
2023-04-20T08:35:53.991Z,6.73
2023-04-20T08:38:18.086Z,6.70
2023-04-20T08:40:42.360Z,7.57
2023-04-20T08:43:04.081Z,7.20
2023-04-20T08:45:26.613Z,6.60
2023-04-20T08:47:49.652Z,8.60
2023-04-20T08:50:11.231Z,7.40
2023-04-20T08:52:33.416Z,7.63
2023-04-20T08:54:57.587Z,6.67
2023-04-20T08:57:19.488Z,6.93
2023-04-20T08:59:41.027Z,5.77
2023-04-20T09:02:12.845Z,6.47
2023-04-20T09:04:34.682Z,5.53
2023-04-20T09:06:56.819Z,6.13
2023-04-20T09:09:19.843Z,6.17
2023-04-20T09:11:41.736Z,6.63
2023-04-20T09:14:10.165Z,5.73
2023-04-20T09:16:31.737Z,6.97
2023-04-20T09:18:57.203Z,6.57
2023-04-20T09:21:18.646Z,7.33
2023-04-20T09:23:40.781Z,7.10
2023-04-20T09:26:02.271Z,6.70
2023-04-20T09:28:23.688Z,6.70
2023-04-20T09:30:47.280Z,6.60
2023-04-20T09:33:10.941Z,6.22
2023-04-20T09:35:32.580Z,6.28
2023-04-20T09:37:54.438Z,5.85
2023-04-20T09:40:16.560Z,9.30
2023-04-20T09:42:39.560Z,7.70
2023-04-20T09:45:01.816Z,6.23
2023-04-20T09:47:25.966Z,6.13
2023-04-20T09:49:47.749Z,5.73
2023-04-20T09:52:09.271Z,6.80
2023-04-20T09:54:31.664Z,5.10
2023-04-20T09:56:54.374Z,4.60
2023-04-20T09:59:19.145Z,5.03
2023-04-20T10:01:41.001Z,5.07
2023-04-20T10:04:08.277Z,6.70
2023-04-20T10:06:33.138Z,6.28
2023-04-20T10:08:55.146Z,6.18
2023-04-20T10:11:49.059Z,6.07
2023-04-20T10:14:19.947Z,6.10
2023-04-20T10:16:42.038Z,4.30
2023-04-20T10:19:06.300Z,4.68
2023-04-20T10:21:32.401Z,3.97
2023-04-20T10:23:54.361Z,4.40
2023-04-20T10:26:16.648Z,4.00
2023-04-20T10:28:42.744Z,3.60
2023-04-20T10:31:04.314Z,4.50
2023-04-20T10:33:25.788Z,3.90
2023-04-20T10:35:54.926Z,4.43
2023-04-20T10:38:36.874Z,4.38
2023-04-20T10:41:09.225Z,9.05
2023-04-20T10:43:30.657Z,4.43
2023-04-20T10:45:52.381Z,4.20
2023-04-20T10:48:15.469Z,4.05
2023-04-20T10:50:39.070Z,3.92
2023-04-20T10:53:00.629Z,4.15
2023-04-20T10:55:24.860Z,3.90
2023-04-20T10:57:46.437Z,3.90
2023-04-20T11:00:34.071Z,3.83
2023-04-20T11:02:57.415Z,4.03
2023-04-20T11:05:20.365Z,3.78
2023-04-20T11:07:52.655Z,4.03
2023-04-20T11:10:14.091Z,3.60
2023-04-20T11:12:39.795Z,3.67
2023-04-20T11:15:03.130Z,3.97
2023-04-20T11:17:35.334Z,4.57
2023-04-20T11:20:10.438Z,4.32
2023-04-20T11:22:32.358Z,5.15
2023-04-20T11:25:05.546Z,4.68
2023-04-20T11:27:27.370Z,5.00
2023-04-20T11:29:57.891Z,5.15
2023-04-20T11:32:19.663Z,5.60
2023-04-20T11:34:41.325Z,5.05
2023-04-20T11:37:07.449Z,5.50
2023-04-20T11:39:32.510Z,5.10
2023-04-20T11:41:54.409Z,5.20
2023-04-20T11:44:16.064Z,5.50
2023-04-20T11:46:37.753Z,5.68
2023-04-20T11:51:29.436Z,6.30
2023-04-20T11:53:50.860Z,6.53
2023-04-20T11:56:12.342Z,5.93
2023-04-20T11:58:33.864Z,5.07
2023-04-20T12:00:55.327Z,5.85
2023-04-20T12:03:17.179Z,6.28
2023-04-20T12:05:38.829Z,5.80
2023-04-20T12:08:00.304Z,6.47
2023-04-20T12:10:21.943Z,6.05
2023-04-20T12:12:43.424Z,6.28
2023-04-20T12:15:05.444Z,5.82
2023-04-20T12:17:27.008Z,6.03
2023-04-20T12:19:48.531Z,6.50
2023-04-20T12:22:10.108Z,5.57
2023-04-20T12:24:31.528Z,6.40
2023-04-20T12:26:53.016Z,6.47
2023-04-20T12:29:14.698Z,6.17
2023-04-20T12:31:36.542Z,7.13
2023-04-20T12:33:58.030Z,6.50
2023-04-20T12:36:19.507Z,6.67
2023-04-20T12:38:41.041Z,6.40
2023-04-20T12:41:04.268Z,7.50
2023-04-20T12:43:25.804Z,7.23
2023-04-20T12:45:48.435Z,6.70
2023-04-20T12:48:09.963Z,7.17
2023-04-20T12:50:31.483Z,6.57
2023-04-20T12:52:55.483Z,7.10
2023-04-20T12:55:16.974Z,7.10
2023-04-20T12:57:38.438Z,7.27
2023-04-20T13:00:02.774Z,7.00
2023-04-20T13:02:24.554Z,7.13
2023-04-20T13:04:46.979Z,6.47
2023-04-20T13:07:08.765Z,6.73
2023-04-20T13:09:30.263Z,6.13
2023-04-20T13:11:51.686Z,6.40
2023-04-20T13:14:13.259Z,6.65
2023-04-20T13:16:34.822Z,6.70
2023-04-20T13:18:56.624Z,6.80
2023-04-20T13:21:18.083Z,6.80
2023-04-20T13:23:40.113Z,6.18
2023-04-20T13:26:01.815Z,6.30
2023-04-20T13:28:24.541Z,6.15
2023-04-20T13:30:46.042Z,6.77
2023-04-20T13:33:07.648Z,6.37
2023-04-20T13:35:29.500Z,6.30
2023-04-20T13:37:51.205Z,7.90
2023-04-20T13:40:12.915Z,8.00
2023-04-20T13:42:34.599Z,8.70
2023-04-20T13:44:56.181Z,9.83
2023-04-20T13:47:19.490Z,9.90
2023-04-20T13:49:41.064Z,10.57
2023-04-20T13:52:02.681Z,10.37
2023-04-20T13:54:24.126Z,10.93
2023-04-20T13:56:45.636Z,11.70
2023-04-20T13:59:07.229Z,11.57
2023-04-20T14:01:28.786Z,12.80
2023-04-20T14:03:52.208Z,11.90
2023-04-20T14:06:13.693Z,12.17
2023-04-20T14:08:35.153Z,12.33
2023-04-20T14:10:56.990Z,11.83
2023-04-20T14:13:18.575Z,12.17
2023-04-20T14:15:40.304Z,11.17
2023-04-20T14:18:01.851Z,11.23
2023-04-20T14:20:23.577Z,11.53
2023-04-20T14:22:45.039Z,11.90
2023-04-20T14:25:07.183Z,11.60
2023-04-20T14:27:28.649Z,11.43
2023-04-20T14:29:50.884Z,11.03
2023-04-20T14:32:12.820Z,11.10
2023-04-20T14:34:34.288Z,10.50
2023-04-20T14:36:55.771Z,10.70
2023-04-20T14:39:19.946Z,11.17
2023-04-20T14:41:41.398Z,11.10
2023-04-20T14:44:02.939Z,11.10
2023-04-20T14:46:24.533Z,10.67
2023-04-20T14:48:46.517Z,11.30
2023-04-20T14:51:07.985Z,10.70
2023-04-20T14:53:30.536Z,10.50
2023-04-20T14:55:52.991Z,10.23
2023-04-20T14:58:18.332Z,10.07
2023-04-20T15:00:39.834Z,10.47
2023-04-20T15:03:01.404Z,11.37
2023-04-20T15:05:25.043Z,11.93
2023-04-20T15:07:50.584Z,10.70
2023-04-20T15:10:12.592Z,10.23
2023-04-20T15:12:34.030Z,10.40
2023-04-20T15:14:55.500Z,10.43
2023-04-20T15:17:16.980Z,9.57
2023-04-20T15:19:40.462Z,9.93
2023-04-20T15:22:01.969Z,11.33
2023-04-20T15:24:23.420Z,11.30
2023-04-20T15:26:44.861Z,12.00
2023-04-20T15:29:06.469Z,12.43
2023-04-20T15:31:28.007Z,11.40
2023-04-20T15:33:49.718Z,11.77
2023-04-20T15:36:11.141Z,10.30
2023-04-20T15:38:32.658Z,10.33
2023-04-20T15:40:55.308Z,11.00
2023-04-20T15:43:16.891Z,11.53
2023-04-20T15:45:38.370Z,10.80
2023-04-20T15:48:01.044Z,10.60
2023-04-20T15:50:23.342Z,10.13
2023-04-20T15:52:45.648Z,10.13
2023-04-20T15:55:10.023Z,10.57
2023-04-20T15:57:31.520Z,10.73
2023-04-20T15:59:52.956Z,11.53
2023-04-20T16:02:14.524Z,11.67
2023-04-20T16:04:36.326Z,11.90
2023-04-20T16:06:57.884Z,11.73
2023-04-20T16:09:19.964Z,11.53
2023-04-20T16:11:42.760Z,12.03
2023-04-20T16:14:04.236Z,11.97
2023-04-20T16:16:25.881Z,11.93
2023-04-20T16:18:48.220Z,12.13
2023-04-20T16:21:09.808Z,15.13
2023-04-20T16:23:31.398Z,14.57
2023-04-20T16:25:52.890Z,13.27
2023-04-20T16:28:14.447Z,13.60
2023-04-20T16:30:38.735Z,13.50
2023-04-20T16:33:00.354Z,13.53
2023-04-20T16:35:22.036Z,13.10
2023-04-20T16:37:43.987Z,13.00
2023-04-20T16:40:06.131Z,12.77
2023-04-20T16:42:27.827Z,12.90
2023-04-20T16:44:49.333Z,12.47
2023-04-20T16:47:10.986Z,13.00
2023-04-20T16:49:32.715Z,12.10
2023-04-20T16:51:54.291Z,12.80
2023-04-20T16:54:16.125Z,13.10
2023-04-20T16:56:38.584Z,13.87
2023-04-20T16:59:00.142Z,14.23
2023-04-20T17:01:21.698Z,14.20
2023-04-20T17:03:43.332Z,13.47
2023-04-20T17:06:07.537Z,14.83
2023-04-20T17:08:29.028Z,14.73
2023-04-20T17:10:50.557Z,13.57
2023-04-20T17:13:12.043Z,13.57
2023-04-20T17:15:33.529Z,14.43
2023-04-20T17:17:55.073Z,14.20
2023-04-20T17:20:16.500Z,15.07
2023-04-20T17:22:38.109Z,15.90
2023-04-20T17:25:01.299Z,17.27
2023-04-20T17:27:23.173Z,17.00
2023-04-20T17:29:45.138Z,17.50
2023-04-20T17:32:06.775Z,19.13
2023-04-20T17:34:28.279Z,18.43
2023-04-20T17:36:49.801Z,18.73
2023-04-20T17:39:11.381Z,19.67
2023-04-20T17:41:34.816Z,19.47
2023-04-20T17:43:56.301Z,20.17
2023-04-20T17:46:17.902Z,19.97
2023-04-20T17:48:39.442Z,19.57
2023-04-20T17:51:00.969Z,20.27
2023-04-20T17:53:22.481Z,20.47
2023-04-20T17:55:43.948Z,20.00
2023-04-20T17:58:05.395Z,20.33
2023-04-20T18:00:27.080Z,21.60
2023-04-20T18:02:48.636Z,21.30
2023-04-20T18:05:10.462Z,21.73
2023-04-20T18:07:31.920Z,21.13
2023-04-20T18:09:53.420Z,22.03
2023-04-20T18:12:14.883Z,22.20
2023-04-20T18:14:39.759Z,21.93
2023-04-20T18:17:01.212Z,22.70
2023-04-20T18:19:22.848Z,23.13
2023-04-20T18:21:44.669Z,22.87
2023-04-20T18:24:07.077Z,21.80
2023-04-20T18:26:28.621Z,22.30
2023-04-20T18:28:50.161Z,23.33
2023-04-20T18:31:12.174Z,22.73
2023-04-20T18:33:33.689Z,22.93
2023-04-20T18:35:55.176Z,23.97
2023-04-20T18:38:16.665Z,22.07
2023-04-20T18:40:38.216Z,21.60
2023-04-20T18:42:59.714Z,22.77
2023-04-20T18:45:23.417Z,22.17
2023-04-20T18:47:44.925Z,22.47
2023-04-20T18:50:07.002Z,24.37
2023-04-20T18:52:32.473Z,26.47
2023-04-20T18:54:55.405Z,25.00
2023-04-20T18:57:17.214Z,26.93
2023-04-20T18:59:38.716Z,33.20
2023-04-20T19:02:00.374Z,32.83
2023-04-20T19:04:22.300Z,29.27
2023-04-20T19:06:44.002Z,27.87
2023-04-20T19:09:07.833Z,27.40
2023-04-20T19:11:32.806Z,25.10
2023-04-20T19:13:54.469Z,26.53
2023-04-20T19:16:15.996Z,25.73
2023-04-20T19:18:38.247Z,24.33
2023-04-20T19:20:59.670Z,23.83
2023-04-20T19:23:22.142Z,24.47
2023-04-20T19:25:44.023Z,25.37
2023-04-20T19:28:08.105Z,24.97
2023-04-20T19:30:29.702Z,24.67
2023-04-20T19:32:51.229Z,25.70
2023-04-20T19:35:12.733Z,25.30
2023-04-20T19:37:34.283Z,27.50
2023-04-20T19:39:55.813Z,26.30
2023-04-20T19:42:18.578Z,24.20
2023-04-20T19:44:40.030Z,25.97
2023-04-20T19:47:01.595Z,26.37
2023-04-20T19:49:23.040Z,25.40
2023-04-20T19:51:44.584Z,25.77
2023-04-20T19:54:06.099Z,27.00
2023-04-20T19:56:27.567Z,26.50
2023-04-20T19:58:49.031Z,26.97
2023-04-20T20:01:10.724Z,25.90
2023-04-20T20:03:32.314Z,25.87
2023-04-20T20:05:53.983Z,25.47
2023-04-20T20:08:16.540Z,25.43
2023-04-20T20:10:38.001Z,26.03
2023-04-20T20:13:00.995Z,25.57
2023-04-20T20:15:22.454Z,25.67
2023-04-20T20:17:45.298Z,25.70
2023-04-20T20:20:07.342Z,25.83
2023-04-20T20:22:28.906Z,24.97
2023-04-20T20:24:52.204Z,29.00
2023-04-20T20:27:13.636Z,26.03
2023-04-20T20:29:35.150Z,24.53
2023-04-20T20:31:56.647Z,24.47
2023-04-20T20:34:18.190Z,25.03
2023-04-20T20:36:42.525Z,24.80
2023-04-20T20:39:05.171Z,24.70
2023-04-20T20:41:26.880Z,24.67
2023-04-20T20:43:49.902Z,24.83
2023-04-20T20:46:11.408Z,26.23
2023-04-20T20:48:32.900Z,25.17
2023-04-20T20:50:54.349Z,25.70
2023-04-20T20:53:17.530Z,24.10
2023-04-20T20:55:38.965Z,25.67
2023-04-20T20:58:00.602Z,24.93
2023-04-20T21:00:22.151Z,25.60
2023-04-20T21:02:43.673Z,25.50
2023-04-20T21:05:05.918Z,26.17
2023-04-20T21:07:27.400Z,26.33
2023-04-20T21:09:48.936Z,25.53
2023-04-20T21:12:10.374Z,26.47
2023-04-20T21:14:32.001Z,26.30
2023-04-20T21:16:53.941Z,26.37
2023-04-20T21:19:15.501Z,26.70
2023-04-20T21:21:36.984Z,26.57
2023-04-20T21:23:59.086Z,25.93
2023-04-20T21:26:20.666Z,26.43
2023-04-20T21:28:42.408Z,24.87
2023-04-20T21:31:03.867Z,26.10
2023-04-20T21:33:25.480Z,26.03
2023-04-20T21:35:47.032Z,25.63
2023-04-20T21:38:08.489Z,24.97
2023-04-20T21:40:29.991Z,27.00
2023-04-20T21:42:51.433Z,25.83
2023-04-20T21:45:12.910Z,25.90
2023-04-20T21:47:34.383Z,26.50
2023-04-20T21:49:55.931Z,25.23
2023-04-20T21:52:17.422Z,25.27
2023-04-20T21:54:40.851Z,25.23
2023-04-20T21:57:02.530Z,25.93
2023-04-20T21:59:24.058Z,25.13
2023-04-20T22:01:45.560Z,25.83
2023-04-20T22:04:07.451Z,25.67
2023-04-20T22:06:29.091Z,24.53
2023-04-20T22:08:50.765Z,26.03
2023-04-20T22:11:12.215Z,24.40
2023-04-20T22:13:34.610Z,25.97
2023-04-20T22:15:56.274Z,25.50
2023-04-20T22:18:18.965Z,25.10
2023-04-20T22:20:40.412Z,26.53
2023-04-20T22:23:01.925Z,24.73
2023-04-20T22:25:26.688Z,24.37
2023-04-20T22:27:48.145Z,24.10
2023-04-20T22:30:10.284Z,23.73
2023-04-20T22:32:31.915Z,25.73
2023-04-20T22:34:53.556Z,25.33
2023-04-20T22:37:15.153Z,25.43
2023-04-20T22:39:36.623Z,23.60
2023-04-20T22:41:58.104Z,24.07
2023-04-20T22:44:19.576Z,25.03
2023-04-20T22:46:41.574Z,26.10
2023-04-20T22:49:04.204Z,23.13
2023-04-20T22:51:25.995Z,23.07
2023-04-20T22:53:47.475Z,23.07
2023-04-20T22:56:08.997Z,22.83
2023-04-20T22:58:30.736Z,23.07
2023-04-20T23:00:52.194Z,23.00
2023-04-20T23:03:13.853Z,24.90
2023-04-20T23:05:35.422Z,25.13
2023-04-20T23:07:56.964Z,23.00
2023-04-20T23:10:19.014Z,23.47
2023-04-20T23:12:40.507Z,24.87
2023-04-20T23:15:02.166Z,24.17
2023-04-20T23:17:23.744Z,24.67
2023-04-20T23:19:45.924Z,22.63
2023-04-20T23:22:10.249Z,23.70
2023-04-20T23:24:31.685Z,21.97
2023-04-20T23:26:53.166Z,21.70
2023-04-20T23:29:14.615Z,22.93
2023-04-20T23:31:36.058Z,22.30
2023-04-20T23:33:57.534Z,22.03
2023-04-20T23:36:19.009Z,22.17
2023-04-20T23:38:40.969Z,21.63
2023-04-20T23:41:08.136Z,21.73
2023-04-20T23:43:29.612Z,21.77
2023-04-20T23:45:51.362Z,22.10
2023-04-20T23:48:12.871Z,22.37
2023-04-20T23:50:36.967Z,21.13
2023-04-20T23:52:58.666Z,21.17
2023-04-20T23:55:20.176Z,19.63
2023-04-20T23:57:41.684Z,21.20
